createdAt,value
2023-02-21T00:02:00.804Z,5.53
2023-02-21T00:04:50.772Z,5.70
2023-02-21T00:07:41.031Z,5.80
2023-02-21T00:10:33.164Z,4.75
2023-02-21T00:13:20.878Z,5.95
2023-02-21T00:16:09.719Z,6.53
2023-02-21T00:19:00.134Z,5.60
2023-02-21T00:21:49.870Z,6.25
2023-02-21T00:24:38.437Z,6.68
2023-02-21T00:27:27.568Z,5.75
2023-02-21T00:30:14.831Z,7.28
2023-02-21T00:33:06.015Z,5.85
2023-02-21T00:35:56.175Z,5.80
2023-02-21T00:38:46.613Z,5.20
2023-02-21T00:41:34.539Z,6.25
2023-02-21T00:44:21.684Z,7.15
2023-02-21T00:47:09.613Z,6.57
2023-02-21T00:49:57.329Z,6.00
2023-02-21T00:52:44.453Z,6.30
2023-02-21T00:55:33.958Z,6.60
2023-02-21T00:58:21.301Z,6.30
2023-02-21T01:01:08.449Z,7.38
2023-02-21T01:03:56.513Z,6.55
2023-02-21T01:06:44.274Z,7.53
2023-02-21T01:09:31.492Z,5.80
2023-02-21T01:12:22.808Z,6.82
2023-02-21T01:15:10.498Z,6.30
2023-02-21T01:17:57.874Z,8.25
2023-02-21T01:20:45.129Z,8.25
2023-02-21T01:23:33.664Z,7.10
2023-02-21T01:26:20.739Z,8.82
2023-02-21T01:29:11.616Z,8.85
2023-02-21T01:31:58.558Z,7.93
2023-02-21T01:34:46.445Z,9.15
2023-02-21T01:37:34.108Z,9.10
2023-02-21T01:40:21.638Z,8.40
2023-02-21T01:43:08.507Z,9.82
2023-02-21T01:46:09.051Z,9.90
2023-02-21T01:49:26.614Z,8.25
2023-02-21T01:52:14.807Z,9.18
2023-02-21T01:55:06.077Z,9.43
2023-02-21T01:57:56.889Z,9.20
2023-02-21T02:00:47.769Z,8.75
2023-02-21T02:03:39.440Z,9.32
2023-02-21T02:06:30.784Z,9.20
2023-02-21T02:09:17.922Z,10.93
2023-02-21T02:12:21.327Z,8.48
2023-02-21T02:15:26.390Z,10.30
2023-02-21T02:18:23.101Z,9.30
2023-02-21T02:21:22.438Z,9.85
2023-02-21T02:24:35.177Z,9.52
2023-02-21T02:27:42.172Z,9.70
2023-02-21T02:31:09.218Z,9.38
2023-02-21T02:34:30.691Z,10.02
2023-02-21T02:37:14.647Z,9.23
2023-02-21T02:39:54.446Z,10.20
2023-02-21T02:42:37.436Z,8.93
2023-02-21T02:45:16.225Z,10.60
2023-02-21T02:47:52.061Z,8.32
2023-02-21T02:50:24.573Z,10.05
2023-02-21T02:53:01.885Z,10.25
2023-02-21T02:55:43.327Z,9.23
2023-02-21T02:58:14.970Z,7.90
2023-02-21T03:00:50.374Z,9.13
2023-02-21T03:03:47.506Z,8.63
2023-02-21T03:06:27.458Z,10.93
2023-02-21T03:09:09.314Z,9.52
2023-02-21T03:11:45.133Z,9.60
2023-02-21T03:14:19.418Z,8.77
2023-02-21T03:16:53.970Z,9.02
2023-02-21T03:19:29.244Z,9.63
2023-02-21T03:22:05.149Z,8.70
2023-02-21T03:24:38.169Z,10.68
2023-02-21T03:27:11.492Z,9.50
2023-02-21T03:30:06.076Z,9.02
2023-02-21T03:32:39.595Z,10.15
2023-02-21T03:35:10.824Z,8.05
2023-02-21T03:37:43.840Z,8.23
2023-02-21T03:40:18.286Z,9.30
2023-02-21T03:42:51.346Z,10.57
2023-02-21T03:45:23.126Z,8.67
2023-02-21T03:48:05.731Z,8.52
2023-02-21T03:50:37.685Z,7.50
2023-02-21T03:53:09.620Z,9.18
2023-02-21T03:55:42.037Z,8.75
2023-02-21T03:58:18.066Z,8.98
2023-02-21T04:00:48.026Z,8.55
2023-02-21T04:03:20.180Z,8.40
2023-02-21T04:06:05.813Z,8.37
2023-02-21T04:08:35.941Z,8.43
2023-02-21T04:11:07.614Z,7.60
2023-02-21T04:13:38.864Z,9.10
2023-02-21T04:16:08.644Z,8.30
2023-02-21T04:18:38.947Z,7.38
2023-02-21T04:21:11.294Z,7.07
2023-02-21T04:23:40.982Z,6.57
2023-02-21T04:26:13.273Z,7.65
2023-02-21T04:28:52.893Z,6.57
2023-02-21T04:31:22.412Z,7.83
2023-02-21T04:34:05.866Z,7.13
2023-02-21T04:36:41.062Z,6.68
2023-02-21T04:39:11.452Z,8.10
2023-02-21T04:41:43.093Z,7.60
2023-02-21T04:44:12.989Z,8.03
2023-02-21T04:46:42.366Z,6.90
2023-02-21T04:49:14.025Z,7.40
2023-02-21T04:51:44.645Z,6.25
2023-02-21T04:54:14.251Z,7.20
2023-02-21T04:56:45.400Z,8.63
2023-02-21T04:59:14.805Z,7.20
2023-02-21T05:01:44.357Z,7.00
2023-02-21T05:04:13.712Z,8.27
2023-02-21T05:06:43.208Z,6.80
2023-02-21T05:09:12.754Z,8.02
2023-02-21T05:11:43.565Z,10.27
2023-02-21T05:14:12.915Z,11.15
2023-02-21T05:16:42.418Z,9.57
2023-02-21T05:19:11.986Z,8.95
2023-02-21T05:21:41.558Z,7.80
2023-02-21T05:24:11.952Z,9.93
2023-02-21T05:26:41.250Z,8.98
2023-02-21T05:29:11.918Z,8.75
2023-02-21T05:31:41.206Z,9.63
2023-02-21T05:34:10.477Z,8.73
2023-02-21T05:36:41.100Z,9.35
2023-02-21T05:39:11.161Z,8.45
2023-02-21T05:41:40.462Z,9.48
2023-02-21T05:44:11.347Z,7.88
2023-02-21T05:46:40.583Z,7.85
2023-02-21T05:49:10.316Z,9.68
2023-02-21T05:51:41.541Z,8.30
2023-02-21T05:54:18.629Z,9.80
2023-02-21T05:56:50.363Z,7.40
2023-02-21T05:59:22.930Z,7.63
2023-02-21T06:01:53.121Z,9.07
2023-02-21T06:04:48.091Z,7.43
2023-02-21T06:07:18.956Z,7.47
2023-02-21T06:09:51.254Z,8.02
2023-02-21T06:12:21.453Z,9.30
2023-02-21T06:14:57.844Z,9.63
2023-02-21T06:17:28.219Z,8.35
2023-02-21T06:19:59.120Z,7.72
2023-02-21T06:22:29.074Z,8.02
2023-02-21T06:25:02.719Z,8.82
2023-02-21T06:27:40.907Z,9.23
2023-02-21T06:30:15.332Z,8.48
2023-02-21T06:32:47.612Z,6.93
2023-02-21T06:35:18.460Z,9.38
2023-02-21T06:37:48.644Z,8.10
2023-02-21T06:40:20.365Z,7.40
2023-02-21T06:42:52.421Z,6.75
2023-02-21T06:45:25.655Z,7.53
2023-02-21T06:47:55.537Z,8.43
2023-02-21T06:50:25.638Z,7.15
2023-02-21T06:52:56.146Z,6.25
2023-02-21T06:55:26.916Z,7.78
2023-02-21T06:57:56.893Z,6.37
2023-02-21T07:00:28.243Z,6.73
2023-02-21T07:02:59.266Z,5.90
2023-02-21T07:05:31.653Z,5.68
2023-02-21T07:08:02.081Z,6.30
2023-02-21T07:10:34.067Z,5.73
2023-02-21T07:13:04.044Z,6.43
2023-02-21T07:15:36.060Z,4.65
2023-02-21T07:18:06.416Z,4.60
2023-02-21T07:20:36.785Z,5.20
2023-02-21T07:23:07.576Z,6.03
2023-02-21T07:25:37.321Z,5.68
2023-02-21T07:28:34.405Z,4.80
2023-02-21T07:31:07.760Z,5.20
2023-02-21T07:33:39.103Z,4.57
2023-02-21T07:36:10.632Z,4.82
2023-02-21T07:38:41.021Z,3.80
2023-02-21T07:41:10.847Z,3.40
2023-02-21T07:43:40.985Z,4.23
2023-02-21T07:46:15.323Z,3.25
2023-02-21T07:48:45.337Z,3.05
2023-02-21T07:51:15.625Z,3.00
2023-02-21T07:53:46.480Z,2.87
2023-02-21T07:56:16.303Z,2.33
2023-02-21T07:58:46.553Z,2.63
2023-02-21T08:01:18.907Z,2.20
2023-02-21T08:03:48.938Z,1.80
2023-02-21T08:06:19.747Z,2.42
2023-02-21T08:08:50.830Z,2.70
2023-02-21T08:11:21.278Z,1.80
2023-02-21T08:13:52.177Z,2.13
2023-02-21T08:16:24.097Z,2.20
2023-02-21T08:18:54.134Z,2.20
2023-02-21T08:21:24.086Z,1.80
2023-02-21T08:24:21.876Z,1.97
2023-02-21T08:26:55.264Z,2.20
2023-02-21T08:29:25.682Z,1.73
2023-02-21T08:31:59.566Z,1.73
2023-02-21T08:34:31.414Z,1.40
2023-02-21T08:37:02.013Z,1.53
2023-02-21T08:39:32.547Z,1.27
2023-02-21T08:42:02.353Z,2.83
2023-02-21T08:44:32.441Z,1.43
2023-02-21T08:47:03.763Z,1.57
2023-02-21T08:49:33.883Z,2.30
2023-02-21T08:52:03.392Z,1.50
2023-02-21T08:54:33.817Z,0.97
2023-02-21T08:57:04.069Z,1.63
2023-02-21T08:59:37.983Z,2.40
2023-02-21T09:02:12.782Z,2.50
2023-02-21T09:04:42.656Z,1.40
2023-02-21T09:07:13.572Z,1.20
2023-02-21T09:09:43.163Z,1.43
2023-02-21T09:12:13.340Z,1.30
2023-02-21T09:14:44.701Z,1.63
2023-02-21T09:17:18.685Z,1.30
2023-02-21T09:19:48.072Z,1.93
2023-02-21T09:22:18.666Z,1.27
2023-02-21T09:24:50.023Z,1.53
2023-02-21T09:27:20.366Z,1.60
2023-02-21T09:29:49.793Z,1.80
2023-02-21T09:32:20.642Z,1.50
2023-02-21T09:34:49.886Z,1.73
2023-02-21T09:37:19.283Z,1.50
2023-02-21T09:39:48.803Z,1.40
2023-02-21T09:42:20.483Z,2.13
2023-02-21T09:44:50.424Z,2.13
2023-02-21T09:47:32.457Z,2.73
2023-02-21T09:50:06.828Z,3.60
2023-02-21T09:52:39.425Z,2.17
2023-02-21T09:55:23.431Z,1.43
2023-02-21T09:57:52.718Z,1.73
2023-02-21T10:00:25.428Z,2.50
2023-02-21T10:03:05.224Z,1.70
2023-02-21T10:05:44.096Z,1.73
2023-02-21T10:08:30.408Z,1.23
2023-02-21T10:11:05.257Z,1.97
2023-02-21T10:13:45.177Z,2.30
2023-02-21T10:16:18.994Z,2.20
2023-02-21T10:19:02.049Z,2.27
2023-02-21T10:21:36.728Z,2.00
2023-02-21T10:24:13.712Z,2.57
2023-02-21T10:26:49.357Z,3.20
2023-02-21T10:29:25.190Z,1.87
2023-02-21T10:31:59.227Z,1.53
2023-02-21T10:34:32.458Z,2.53
2023-02-21T10:37:08.576Z,2.07
2023-02-21T10:39:46.655Z,2.50
2023-02-21T10:42:27.792Z,1.80
2023-02-21T10:44:59.674Z,1.60
2023-02-21T10:47:35.982Z,1.53
2023-02-21T10:50:12.289Z,2.10
2023-02-21T10:52:50.940Z,2.60
2023-02-21T10:55:32.668Z,2.00
2023-02-21T10:58:10.403Z,2.33
2023-02-21T11:00:48.579Z,5.10
2023-02-21T11:03:27.776Z,2.77
2023-02-21T11:06:02.382Z,1.63
2023-02-21T11:08:39.585Z,4.43
2023-02-21T11:11:11.200Z,1.97
2023-02-21T11:13:41.319Z,2.90
2023-02-21T11:16:14.042Z,1.90
2023-02-21T11:19:05.765Z,2.40
2023-02-21T11:21:37.692Z,1.87
2023-02-21T11:24:09.469Z,2.60
2023-02-21T11:26:47.390Z,2.37
2023-02-21T11:29:19.968Z,2.33
2023-02-21T11:31:50.414Z,2.10
2023-02-21T11:34:21.508Z,2.00
2023-02-21T11:36:53.752Z,2.50
2023-02-21T11:39:29.800Z,1.63
2023-02-21T11:42:03.670Z,2.10
2023-02-21T11:44:35.771Z,2.90
2023-02-21T11:47:15.753Z,1.63
2023-02-21T11:49:55.165Z,2.60
2023-02-21T11:52:34.227Z,1.93
2023-02-21T11:55:04.350Z,2.20
2023-02-21T11:57:45.473Z,3.40
2023-02-21T12:00:27.079Z,2.10
2023-02-21T12:03:22.858Z,2.03
2023-02-21T12:05:59.901Z,2.70
2023-02-21T12:08:47.672Z,2.97
2023-02-21T12:11:33.273Z,2.50
2023-02-21T12:14:26.924Z,1.67
2023-02-21T12:17:06.494Z,1.80
2023-02-21T12:20:02.586Z,1.83
2023-02-21T12:22:48.615Z,2.40
2023-02-21T12:25:30.850Z,2.80
2023-02-21T12:28:07.599Z,2.70
2023-02-21T12:31:12.423Z,2.90
2023-02-21T12:33:48.226Z,1.67
2023-02-21T12:36:36.049Z,2.77
2023-02-21T12:39:15.243Z,3.10
2023-02-21T12:42:18.456Z,2.30
2023-02-21T12:44:58.537Z,2.27
2023-02-21T12:47:34.430Z,2.40
2023-02-21T12:50:09.017Z,3.40
2023-02-21T12:52:43.022Z,2.20
2023-02-21T12:55:22.075Z,2.53
2023-02-21T12:57:59.987Z,2.83
2023-02-21T13:00:34.277Z,3.23
2023-02-21T13:03:25.194Z,2.60
2023-02-21T13:10:09.381Z,2.77
2023-02-21T13:12:45.548Z,1.77
2023-02-21T13:15:23.427Z,2.30
2023-02-21T13:18:02.147Z,2.10
2023-02-21T13:20:37.971Z,2.20
2023-02-21T13:23:09.874Z,3.53
2023-02-21T13:25:55.041Z,1.70
2023-02-21T13:28:27.292Z,2.33
2023-02-21T13:31:03.582Z,1.90
2023-02-21T13:33:44.378Z,1.87
2023-02-21T13:36:27.981Z,2.40
2023-02-21T13:39:13.591Z,2.70
2023-02-21T13:41:46.474Z,2.83
2023-02-21T13:44:24.609Z,2.37
2023-02-21T13:47:14.259Z,2.67
2023-02-21T13:49:57.139Z,2.60
2023-02-21T13:53:00.822Z,2.07
2023-02-21T13:55:33.257Z,2.07
2023-02-21T13:58:32.225Z,4.50
2023-02-21T14:01:31.660Z,2.87
2023-02-21T14:04:23.112Z,2.30
2023-02-21T14:06:58.842Z,3.33
2023-02-21T14:09:37.729Z,2.70
2023-02-21T14:12:08.505Z,2.23
2023-02-21T14:14:42.893Z,1.80
2023-02-21T14:17:14.786Z,3.17
2023-02-21T14:19:51.958Z,2.60
2023-02-21T14:22:28.757Z,2.70
2023-02-21T14:25:10.703Z,2.47
2023-02-21T14:27:41.980Z,2.90
2023-02-21T14:30:33.777Z,3.10
2023-02-21T14:33:26.455Z,3.20
2023-02-21T14:36:06.493Z,3.07
2023-02-21T14:38:43.674Z,4.80
2023-02-21T14:41:36.555Z,3.00
2023-02-21T14:44:21.259Z,5.10
2023-02-21T14:47:34.099Z,4.60
2023-02-21T14:50:32.969Z,3.83
2023-02-21T14:53:29.434Z,2.83
2023-02-21T14:56:28.782Z,2.40
2023-02-21T14:59:22.118Z,3.40
2023-02-21T15:02:05.158Z,4.30
2023-02-21T15:04:41.678Z,2.63
2023-02-21T15:07:21.474Z,3.10
2023-02-21T15:10:15.054Z,2.77
2023-02-21T15:12:49.470Z,2.33
2023-02-21T15:15:24.125Z,2.40
2023-02-21T15:18:10.386Z,2.57
2023-02-21T15:20:44.339Z,3.93
2023-02-21T15:23:19.188Z,2.90
2023-02-21T15:25:56.991Z,2.03
2023-02-21T15:28:30.083Z,2.33
2023-02-21T15:31:05.825Z,3.93
2023-02-21T15:33:37.800Z,3.83
2023-02-21T15:36:11.026Z,3.17
2023-02-21T15:38:47.071Z,2.43
2023-02-21T15:41:28.628Z,4.00
2023-02-21T15:44:06.691Z,4.43
2023-02-21T15:46:44.962Z,2.90
2023-02-21T15:49:21.775Z,2.93
2023-02-21T15:51:53.166Z,3.07
2023-02-21T15:54:29.641Z,3.10
2023-02-21T15:57:22.434Z,1.93
2023-02-21T16:00:18.222Z,2.70
2023-02-21T16:13:25.616Z,2.83
2023-02-21T16:16:02.800Z,4.20
2023-02-21T16:18:32.170Z,3.87
2023-02-21T16:21:02.870Z,3.63
2023-02-21T16:23:35.474Z,4.07
2023-02-21T16:26:22.240Z,3.43
2023-02-21T16:28:52.888Z,4.00
2023-02-21T16:31:28.218Z,2.50
2023-02-21T16:33:57.954Z,2.83
2023-02-21T16:36:29.010Z,3.65
2023-02-21T16:38:58.962Z,3.30
2023-02-21T16:41:28.776Z,4.23
2023-02-21T16:43:59.296Z,3.53
2023-02-21T16:46:30.426Z,3.80
2023-02-21T16:49:00.322Z,3.00
2023-02-21T16:51:33.815Z,3.47
2023-02-21T16:54:03.173Z,2.90
2023-02-21T16:56:32.346Z,3.10
2023-02-21T16:59:04.028Z,2.63
2023-02-21T17:01:34.731Z,3.88
2023-02-21T17:04:06.881Z,4.13
2023-02-21T17:06:36.877Z,3.93
2023-02-21T17:09:06.012Z,4.20
2023-02-21T17:11:35.288Z,4.77
2023-02-21T17:14:05.796Z,3.87
2023-02-21T17:16:35.098Z,3.90
2023-02-21T17:19:04.265Z,3.47
2023-02-21T17:21:33.969Z,5.60
2023-02-21T17:24:03.098Z,4.13
2023-02-21T17:26:32.252Z,4.20
2023-02-21T17:29:01.395Z,4.07
2023-02-21T17:31:32.335Z,3.47
2023-02-21T17:34:01.520Z,3.87
2023-02-21T17:36:31.452Z,4.77
2023-02-21T17:39:00.668Z,4.20
2023-02-21T17:41:32.773Z,4.70
2023-02-21T17:44:28.341Z,4.47
2023-02-21T17:46:59.823Z,4.07
2023-02-21T17:49:29.965Z,6.07
2023-02-21T17:51:59.335Z,4.22
2023-02-21T17:54:28.333Z,4.60
2023-02-21T17:56:57.717Z,4.43
2023-02-21T17:59:26.816Z,6.60
2023-02-21T18:01:58.014Z,4.25
2023-02-21T18:04:27.194Z,3.93
2023-02-21T18:06:56.260Z,5.53
2023-02-21T18:09:25.799Z,3.85
2023-02-21T18:11:56.405Z,5.60
2023-02-21T18:14:26.916Z,4.83
2023-02-21T18:16:58.302Z,5.30
2023-02-21T18:19:27.668Z,4.33
2023-02-21T18:21:56.887Z,5.77
2023-02-21T18:24:27.915Z,5.82
2023-02-21T18:26:57.002Z,7.17
2023-02-21T18:29:26.163Z,6.18
2023-02-21T18:31:55.544Z,5.13
2023-02-21T18:34:26.086Z,5.97
2023-02-21T18:36:56.134Z,6.60
2023-02-21T18:39:25.921Z,14.70
2023-02-21T18:41:55.064Z,8.73
2023-02-21T18:44:24.076Z,10.35
2023-02-21T18:47:34.846Z,8.07
2023-02-21T18:50:06.235Z,5.10
2023-02-21T18:52:35.363Z,5.72
2023-02-21T18:55:04.431Z,5.20
2023-02-21T18:57:34.378Z,5.40
2023-02-21T19:00:06.569Z,5.20
2023-02-21T19:02:35.858Z,4.80
2023-02-21T19:05:37.475Z,5.20
2023-02-21T19:08:07.077Z,4.45
2023-02-21T19:10:36.254Z,4.95
2023-02-21T19:13:05.609Z,5.32
2023-02-21T19:15:35.946Z,4.85
2023-02-21T19:18:05.211Z,4.80
2023-02-21T19:20:34.346Z,5.85
2023-02-21T19:23:32.398Z,4.30
2023-02-21T19:26:01.578Z,6.47
2023-02-21T19:28:30.633Z,4.70
2023-02-21T19:30:59.746Z,5.47
2023-02-21T19:33:28.849Z,4.17
2023-02-21T19:36:00.378Z,6.30
2023-02-21T19:38:29.578Z,3.93
2023-02-21T19:41:00.225Z,4.87
2023-02-21T19:43:29.388Z,4.72
2023-02-21T19:45:58.504Z,5.43
2023-02-21T19:48:28.170Z,4.87
2023-02-21T19:50:57.354Z,5.37
2023-02-21T19:53:26.521Z,4.90
2023-02-21T19:55:55.664Z,5.50
2023-02-21T19:58:26.496Z,4.00
2023-02-21T20:00:55.931Z,4.63
2023-02-21T20:03:25.073Z,6.45
2023-02-21T20:05:55.319Z,4.28
2023-02-21T20:08:24.374Z,5.13
2023-02-21T20:10:53.627Z,5.55
2023-02-21T20:13:24.121Z,5.50
2023-02-21T20:15:53.310Z,4.45
2023-02-21T20:18:22.365Z,4.70
2023-02-21T20:20:51.751Z,4.23
2023-02-21T20:23:21.673Z,4.65
2023-02-21T20:25:52.056Z,3.90
2023-02-21T20:28:21.375Z,4.03
2023-02-21T20:30:52.072Z,4.22
2023-02-21T20:33:23.262Z,5.65
2023-02-21T20:35:52.784Z,5.20
2023-02-21T20:38:22.016Z,4.93
2023-02-21T20:41:42.728Z,3.93
2023-02-21T20:44:12.155Z,5.53
2023-02-21T20:46:42.768Z,2.83
2023-02-21T20:49:14.260Z,5.40
2023-02-21T20:51:45.133Z,6.18
2023-02-21T20:54:20.049Z,4.10
2023-02-21T20:56:51.245Z,4.47
2023-02-21T21:00:14.763Z,4.65
2023-02-21T21:02:47.923Z,3.88
2023-02-21T21:05:17.202Z,7.40
2023-02-21T21:07:47.066Z,5.40
2023-02-21T21:10:19.205Z,6.65
2023-02-21T21:12:49.693Z,6.77
2023-02-21T21:15:19.404Z,5.47
2023-02-21T21:17:50.476Z,4.95
2023-02-21T21:20:22.000Z,6.25
2023-02-21T21:22:51.513Z,4.38
2023-02-21T21:25:22.862Z,5.43
2023-02-21T21:27:52.165Z,5.95
2023-02-21T21:30:27.324Z,4.60
2023-02-21T21:32:58.209Z,4.43
2023-02-21T21:35:30.104Z,4.35
2023-02-21T21:38:00.034Z,5.90
2023-02-21T21:40:29.218Z,5.00
2023-02-21T21:42:59.289Z,3.67
2023-02-21T21:45:29.203Z,4.77
2023-02-21T21:48:00.151Z,6.83
2023-02-21T21:50:29.302Z,4.85
2023-02-21T21:52:59.311Z,4.63
2023-02-21T21:59:32.613Z,5.20
2023-02-21T22:02:02.003Z,6.38
2023-02-21T22:04:32.663Z,4.47
2023-02-21T22:07:01.826Z,5.55
2023-02-21T22:09:32.667Z,4.30
2023-02-21T22:12:01.782Z,6.35
2023-02-21T22:14:30.998Z,7.97
2023-02-21T22:17:00.271Z,5.93
2023-02-21T22:19:31.489Z,4.57
2023-02-21T22:23:15.123Z,5.43
2023-02-21T22:25:44.477Z,6.03
2023-02-21T22:28:14.779Z,5.20
2023-02-21T22:30:44.954Z,6.40
2023-02-21T22:33:20.614Z,3.97
2023-02-21T22:35:51.418Z,4.27
2023-02-21T22:38:20.446Z,4.77
2023-02-21T22:40:49.470Z,4.43
2023-02-21T22:43:20.241Z,5.67
2023-02-21T22:45:50.258Z,5.00
2023-02-21T22:48:21.042Z,4.38
2023-02-21T22:50:52.904Z,5.67
2023-02-21T22:53:23.191Z,3.83
2023-02-21T22:55:53.382Z,5.43
2023-02-21T22:58:23.126Z,5.43
2023-02-21T23:00:53.847Z,3.67
2023-02-21T23:03:23.108Z,4.30
2023-02-21T23:05:55.011Z,5.77
2023-02-21T23:08:24.855Z,5.10
2023-02-21T23:10:54.053Z,4.33
2023-02-21T23:13:25.460Z,3.70
2023-02-21T23:15:57.586Z,4.97
2023-02-21T23:18:27.313Z,5.80
2023-02-21T23:20:58.921Z,4.80
2023-02-21T23:23:29.959Z,4.07
2023-02-21T23:26:00.322Z,5.07
2023-02-21T23:28:31.082Z,7.60
2023-02-21T23:31:00.756Z,4.15
2023-02-21T23:33:34.110Z,5.82
2023-02-21T23:36:05.472Z,4.15
2023-02-21T23:38:38.580Z,4.75
2023-02-21T23:41:09.104Z,4.20
2023-02-21T23:43:38.753Z,5.80
2023-02-21T23:46:09.310Z,4.57
2023-02-21T23:48:38.748Z,5.00
2023-02-21T23:51:10.420Z,4.28
2023-02-21T23:53:40.484Z,4.07
2023-02-21T23:56:14.168Z,4.82
2023-02-21T23:58:46.664Z,3.92
